Time;durP1;ratioP1;P1;durP2;ratioP2;P2;SDS_P1;SDS_P2;PMS_P1;PMS_P2;Temp;Humidity;BMP_temperature;BMP_pressure;BME280_temperature;BME280_humidity;BME280_pressure;Samples;Min_cycle;Max_cycle;Signal;HPM_P1;HPM_P2
2022/12/28 09:54:19;;;;;;;20.45;10.10;;;;;;;4.50;55.64;100912.69;7653373;32;262292;-82
2022/12/28 09:58:38;;;;;;;21.58;10.48;;;;;;;4.80;55.71;100898.81;7726971;32;37794;-82
2022/12/28 10:03:22;;;;;;;16.45;9.60;;;;;;;4.79;56.14;100893.59;7715629;32;37659;-82
2022/12/28 10:07:39;;;;;;;15.70;9.82;;;;;;;5.04;56.22;100894.66;7727409;32;38942;-82
2022/12/28 10:11:55;;;;;;;18.67;9.65;;;;;;;5.24;55.10;100897.34;7727182;32;39967;-82
2022/12/28 10:16:17;;;;;;;17.33;10.10;;;;;;;5.52;55.28;100904.38;7727227;32;38028;-82
2022/12/28 10:20:38;;;;;;;20.90;10.48;;;;;;;5.96;53.01;100889.28;7714926;32;36928;-82
2022/12/28 10:24:54;;;;;;;19.12;10.75;;;;;;;5.46;54.58;100899.81;7726865;32;38908;-82
2022/12/28 10:29:17;;;;;;;21.70;11.57;;;;;;;5.97;54.20;100879.31;7734933;32;40594;-82
2022/12/28 10:33:41;;;;;;;23.15;12.02;;;;;;;5.89;53.55;100890.34;7783735;32;38807;-82
2022/12/28 10:38:27;;;;;;;19.60;12.13;;;;;;;4.90;55.09;100906.50;7783838;32;37111;-84
2022/12/28 10:42:49;;;;;;;18.25;12.45;;;;;;;4.95;55.23;100914.84;7784635;32;39808;-82
2022/12/28 10:47:14;;;;;;;30.62;13.45;;;;;;;5.45;54.42;100900.88;7783577;32;40078;-82
2022/12/28 10:51:31;;;;;;;24.12;13.50;;;;;;;5.54;54.78;100899.59;7784605;32;38809;-82
2022/12/28 10:55:48;;;;;;;22.80;13.27;;;;;;;5.52;55.04;100882.75;7796389;32;37331;-82
2022/12/28 11:00:21;;;;;;;23.35;12.57;;;;;;;5.66;54.38;100886.25;7767062;32;38903;-82
2022/12/28 11:04:50;;;;;;;24.52;14.07;;;;;;;5.57;54.80;100876.69;7766617;32;40891;-83
2022/12/28 11:09:12;;;;;;;21.95;13.10;;;;;;;5.79;54.46;100866.44;7769289;32;38067;-77
2022/12/28 11:13:29;;;;;;;21.23;12.43;;;;;;;6.04;53.96;100863.00;7770204;32;37031;-82
2022/12/28 11:17:51;;;;;;;24.25;13.25;;;;;;;5.86;55.03;100853.69;7766318;32;39702;-82
2022/12/28 11:22:10;;;;;;;24.37;13.75;;;;;;;6.03;54.62;100837.00;7765129;32;39722;-83
2022/12/28 11:26:30;;;;;;;23.00;13.18;;;;;;;6.54;54.17;100820.63;7766070;32;38089;-83
2022/12/28 11:30:47;;;;;;;22.15;13.10;;;;;;;7.29;52.83;100806.19;7765061;32;37963;-82
2022/12/28 11:35:04;;;;;;;21.30;13.00;;;;;;;8.03;50.79;100802.59;7766165;32;39969;-83
2022/12/28 11:39:26;;;;;;;25.23;14.10;;;;;;;8.09;49.58;100810.66;7766018;32;39887;-84
2022/12/28 11:43:51;;;;;;;25.27;13.90;;;;;;;8.71;48.69;100800.53;7765970;32;37702;-84
2022/12/28 11:48:42;;;;;;;22.30;13.40;;;;;;;9.34;47.35;100788.94;7764849;32;37875;-85
2022/12/28 11:52:58;;;;;;;16.48;9.27;;;;;;;9.21;47.01;100778.34;7765647;32;39282;-82
2022/12/28 11:57:31;;;;;;;19.67;8.05;;;;;;;9.96;44.33;100763.75;7765942;32;39979;-83
2022/12/28 12:01:49;;;;;;;13.27;6.80;;;;;;;10.11;43.22;100762.41;7764884;32;37958;-83
2022/12/28 12:06:05;;;;;;;12.98;7.37;;;;;;;10.22;42.29;100750.59;7765383;32;37808;-84
2022/12/28 12:10:35;;;;;;;10.73;6.68;;;;;;;10.42;41.51;100743.91;7764495;32;39833;-83
2022/12/28 12:14:54;;;;;;;15.27;6.85;;;;;;;10.56;42.01;100744.41;7764825;32;40044;-83
2022/12/28 12:19:27;;;;;;;16.12;7.50;;;;;;;10.50;40.94;100732.56;7765689;32;38090;-83
2022/12/28 12:24:09;;;;;;;14.18;7.40;;;;;;;10.24;40.95;100720.38;7764657;32;36988;-82
2022/12/28 12:28:31;;;;;;;18.75;10.77;;;;;;;9.73;41.65;100731.22;7765521;32;39901;-83
2022/12/28 12:32:59;;;;;;;16.65;10.88;;;;;;;9.57;43.52;100732.78;7765396;32;39966;-83
2022/12/28 12:37:36;;;;;;;19.45;10.95;;;;;;;8.92;45.32;100726.56;7764170;32;38091;-83
2022/12/28 12:42:19;;;;;;;16.67;10.32;;;;;;;8.74;45.56;100721.22;7765215;32;37899;-84
2022/12/28 12:47:00;;;;;;;19.65;11.30;;;;;;;8.99;45.35;100702.78;7764276;32;39218;-81
2022/12/28 12:51:31;;;;;;;14.65;9.15;;;;;;;9.50;45.03;100692.13;7764051;32;40712;-82
2022/12/28 12:56:05;;;;;;;20.95;9.95;;;;;;;10.47;41.98;100694.91;7764135;32;38050;-84
2022/12/28 13:00:23;;;;;;;19.90;11.40;;;;;;;11.60;39.72;100690.91;7765194;32;36945;-84
2022/12/28 13:04:44;;;;;;;21.08;12.43;;;;;;;11.48;40.00;100696.53;7763712;32;39879;-83
2022/12/28 13:09:02;;;;;;;18.58;10.55;;;;;;;12.20;39.36;100683.59;7765192;32;40246;-83
2022/12/28 13:13:43;;;;;;;22.02;11.95;;;;;;;13.01;36.17;100676.19;7764870;32;37762;-83
2022/12/28 13:18:05;;;;;;;23.12;11.48;;;;;;;13.18;36.07;100662.28;7764705;32;37078;-83
2022/12/28 13:22:44;;;;;;;17.65;11.10;;;;;;;13.64;35.49;100651.50;7763765;32;40360;-84
2022/12/28 13:27:00;;;;;;;17.87;9.75;;;;;;;13.45;34.65;100642.97;7764566;32;38900;-82
2022/12/28 13:31:30;;;;;;;19.33;10.32;;;;;;;13.12;34.43;100626.72;7763360;32;38125;-82
2022/12/28 13:35:46;;;;;;;19.15;10.48;;;;;;;12.80;35.05;100623.25;7764363;32;37023;-82
2022/12/28 13:40:16;;;;;;;16.98;10.27;;;;;;;14.31;32.94;100608.47;7764282;32;39963;-82
2022/12/28 13:44:40;;;;;;;16.62;9.85;;;;;;;18.58;25.85;100596.72;7764344;32;39685;-82
2022/12/28 13:48:58;;;;;;;19.58;10.75;;;;;;;15.80;28.93;100620.75;7763944;32;38035;-82
2022/12/28 13:53:19;;;;;;;21.55;12.30;;;;;;;13.93;32.31;100618.09;7763783;32;38595;-82
2022/12/28 13:57:37;;;;;;;20.45;12.00;;;;;;;12.71;34.60;100632.00;7763925;32;39906;-83
2022/12/28 14:02:05;;;;;;;18.35;10.30;;;;;;;12.11;36.41;100633.25;7762703;32;40562;-82
2022/12/28 14:06:21;;;;;;;18.98;10.18;;;;;;;11.15;37.64;100627.34;7763444;32;38903;-81
2022/12/28 14:10:38;;;;;;;25.25;14.98;;;;;;;11.06;37.34;100621.53;7762295;32;37364;-83
2022/12/28 14:14:54;;;;;;;23.55;14.27;;;;;;;10.39;40.67;100611.62;7763391;32;39943;-81
2022/12/28 14:19:11;;;;;;;26.75;16.05;;;;;;;9.91;42.45;100613.03;7763325;32;39569;-81
2022/12/28 14:23:30;;;;;;;25.15;15.73;;;;;;;10.20;42.64;100612.97;7763161;32;37964;-82
2022/12/28 14:27:59;;;;;;;25.27;15.02;;;;;;;10.10;42.02;100617.16;7763022;32;36992;-81
2022/12/28 14:32:15;;;;;;;25.65;15.68;;;;;;;9.48;43.91;100619.94;7763856;32;39355;-81
2022/12/28 14:36:40;;;;;;;31.30;16.50;;;;;;;9.23;44.90;100622.97;7766777;32;40824;-81
2022/12/28 14:40:59;;;;;;;26.37;15.52;;;;;;;8.80;45.53;100631.38;7766830;32;38951;-81
2022/12/28 14:45:43;;;;;;;22.17;11.05;;;;;;;8.85;45.53;100636.13;7765599;32;36116;-81
2022/12/28 14:50:27;;;;;;;18.25;9.48;;;;;;;8.61;44.81;100624.47;7766587;32;39446;-81
2022/12/28 14:54:49;;;;;;;18.52;8.77;;;;;;;8.65;43.56;100612.84;7766530;32;40747;-81
2022/12/28 14:59:14;;;;;;;18.35;8.73;;;;;;;8.36;43.93;100624.66;7766594;32;38720;-80
2022/12/28 15:03:46;;;;;;;14.95;7.37;;;;;;;8.16;44.27;100619.56;7766738;32;37064;-81
2022/12/28 15:08:03;;;;;;;18.60;9.30;;;;;;;7.96;44.86;100626.19;7766611;32;38951;-81
2022/12/28 15:12:20;;;;;;;16.55;8.30;;;;;;;7.74;45.54;100633.22;7766426;32;40793;-82
2022/12/28 15:16:37;;;;;;;17.65;8.18;;;;;;;7.50;46.14;100627.72;7766321;32;38438;-80
2022/12/28 15:20:54;;;;;;;22.92;12.00;;;;;;;7.47;45.80;100637.16;7766384;32;37702;-81
2022/12/28 15:25:10;;;;;;;15.20;8.65;;;;;;;7.11;47.24;100636.16;7764964;32;39986;-81
2022/12/28 15:29:26;;;;;;;14.38;7.62;;;;;;;6.93;47.59;100634.31;7766239;32;39982;-81
2022/12/28 15:34:02;;;;;;;16.08;7.78;;;;;;;6.92;46.99;100637.25;7765774;32;38057;-81
2022/12/28 15:38:19;;;;;;;20.58;12.32;;;;;;;6.77;47.66;100624.91;7766303;32;37462;-81
2022/12/28 15:42:35;;;;;;;31.27;19.05;;;;;;;6.76;48.44;100628.69;7766734;32;40004;-80
2022/12/28 15:46:55;;;;;;;38.08;22.05;;;;;;;6.61;48.92;100617.38;7766084;32;40031;-81
2022/12/28 15:51:12;;;;;;;19.02;10.82;;;;;;;6.85;48.42;100617.53;7765579;32;38161;-82
2022/12/28 15:55:30;;;;;;;21.87;10.93;;;;;;;6.72;48.83;100604.94;7765957;32;37179;-81
2022/12/28 15:59:46;;;;;;;29.70;14.10;;;;;;;6.55;47.22;100611.00;7765863;32;39078;-82
2022/12/28 16:04:03;;;;;;;21.58;12.43;;;;;;;6.94;46.36;100613.44;7765698;32;40058;-81
2022/12/28 16:08:19;;;;;;;22.50;12.25;;;;;;;6.89;46.58;100610.59;7765593;32;38665;-80
2022/12/28 16:12:35;;;;;;;16.15;8.60;;;;;;;6.76;47.39;100616.97;7766069;32;37983;-81
2022/12/28 16:16:54;;;;;;;24.63;12.48;;;;;;;6.80;46.91;100617.38;7765952;32;38245;-81
2022/12/28 16:21:11;;;;;;;21.25;11.25;;;;;;;6.74;47.08;100625.38;7765460;32;40654;-81
2022/12/28 16:25:30;;;;;;;10.70;6.93;;;;;;;6.82;47.27;100620.69;7765525;32;38741;-81
2022/12/28 16:29:48;;;;;;;9.60;5.35;;;;;;;7.05;46.54;100620.81;7765525;32;36687;-81
2022/12/28 16:34:14;;;;;;;8.70;5.40;;;;;;;7.14;45.73;100599.66;7765695;32;39166;-80
2022/12/28 16:38:30;;;;;;;11.93;5.68;;;;;;;7.20;45.48;100595.19;7765669;32;40659;-81
2022/12/28 16:42:48;;;;;;;11.18;5.68;;;;;;;7.22;45.18;100604.72;7765358;32;37543;-80
2022/12/28 16:47:05;;;;;;;10.07;5.45;;;;;;;7.08;45.07;100598.66;7765296;32;37087;-81
2022/12/28 16:51:21;;;;;;;9.80;5.40;;;;;;;7.04;45.18;100608.31;7765229;32;40054;-81
2022/12/28 16:55:44;;;;;;;11.02;5.30;;;;;;;6.95;45.02;100606.97;7764536;32;40116;-81
2022/12/28 17:00:00;;;;;;;12.07;5.68;;;;;;;6.62;45.74;100602.75;7765148;32;38798;-81
2022/12/28 17:04:17;;;;;;;12.63;5.87;;;;;;;6.99;45.38;100593.81;7765082;32;36646;-81
2022/12/28 17:08:36;;;;;;;11.40;6.05;;;;;;;7.14;45.51;100586.91;7764951;32;39904;-81
2022/12/28 17:12:52;;;;;;;10.02;5.37;;;;;;;7.20;45.33;100570.78;7765057;32;40658;-81
2022/12/28 17:17:09;;;;;;;12.73;5.60;;;;;;;7.18;45.19;100575.59;7764832;32;37590;-81
2022/12/28 17:21:26;;;;;;;9.38;5.18;;;;;;;7.15;45.49;100582.31;7764702;32;37719;-81
2022/12/28 17:25:42;;;;;;;8.93;5.20;;;;;;;7.06;45.41;100580.97;7764711;32;40008;-81
2022/12/28 17:29:58;;;;;;;8.48;5.25;;;;;;;6.98;45.06;100586.72;7764533;32;40036;-81
2022/12/28 17:34:15;;;;;;;11.95;5.75;;;;;;;6.83;45.72;100589.81;7764536;32;37546;-81
2022/12/28 17:38:31;;;;;;;12.43;5.75;;;;;;;6.89;45.67;100578.06;7764454;32;36951;-80
2022/12/28 17:42:47;;;;;;;16.75;7.12;;;;;;;6.79;45.70;100580.50;7764381;32;39264;-81
2022/12/28 17:47:04;;;;;;;13.30;7.40;;;;;;;6.47;46.88;100575.22;7764131;32;39901;-83
2022/12/28 17:51:22;;;;;;;13.93;7.12;;;;;;;6.18;47.57;100573.03;7763767;32;37808;-81
2022/12/28 17:55:38;;;;;;;12.20;6.85;;;;;;;5.96;48.45;100561.78;7764040;32;36904;-81
2022/12/28 17:59:57;;;;;;;12.93;6.97;;;;;;;5.83;48.64;100568.13;7763985;32;38957;-80
2022/12/28 18:04:14;;;;;;;15.38;7.53;;;;;;;5.51;49.52;100567.31;7763814;32;40006;-81
2022/12/28 18:08:31;;;;;;;17.67;7.55;;;;;;;5.60;49.46;100568.69;7765159;32;37976;-81
2022/12/28 18:12:48;;;;;;;13.75;7.68;;;;;;;5.47;49.86;100555.28;7767085;32;37957;-81
2022/12/28 18:17:05;;;;;;;14.50;6.95;;;;;;;5.22;50.62;100550.66;7767162;32;39725;-80
2022/12/28 18:21:24;;;;;;;12.25;6.40;;;;;;;5.32;50.66;100558.31;7766997;32;40870;-80
2022/12/28 18:25:41;;;;;;;13.88;6.80;;;;;;;5.41;50.44;100558.87;7767164;32;37590;-80
2022/12/28 18:29:57;;;;;;;15.75;6.57;;;;;;;5.41;50.52;100556.97;7766928;32;36708;-80
2022/12/28 18:34:13;;;;;;;11.32;5.95;;;;;;;5.37;50.68;100557.66;7766868;32;39294;-80
2022/12/28 18:38:30;;;;;;;12.07;6.12;;;;;;;5.41;50.60;100569.69;7766815;32;40945;-81
2022/12/28 18:42:48;;;;;;;13.25;6.37;;;;;;;5.52;50.42;100566.28;7766911;32;39518;-81
2022/12/28 18:47:05;;;;;;;12.35;6.30;;;;;;;5.70;49.85;100570.09;7766747;32;36468;-80
2022/12/28 18:51:21;;;;;;;14.07;7.45;;;;;;;5.57;50.04;100566.47;7766488;32;40035;-80
2022/12/28 18:55:37;;;;;;;13.15;7.55;;;;;;;5.54;50.47;100575.00;7766632;32;40062;-81
2022/12/28 19:00:00;;;;;;;13.10;7.28;;;;;;;5.54;50.58;100580.41;7766569;32;37979;-81
2022/12/28 19:04:17;;;;;;;16.33;7.68;;;;;;;5.40;51.10;100570.75;7766557;32;36784;-80
2022/12/28 19:08:37;;;;;;;14.70;8.32;;;;;;;5.17;51.64;100574.00;7766507;32;39205;-80
2022/12/28 19:12:55;;;;;;;17.73;8.52;;;;;;;5.17;51.65;100568.59;7766536;32;40145;-81
2022/12/28 19:17:11;;;;;;;14.98;8.80;;;;;;;5.01;52.02;100564.53;7766275;32;37930;-81
2022/12/28 19:21:34;;;;;;;16.15;8.20;;;;;;;5.06;51.85;100559.31;7766054;32;37754;-81
2022/12/28 19:25:53;;;;;;;13.45;8.55;;;;;;;4.89;52.21;100565.19;7766341;32;38860;-80
2022/12/28 19:30:12;;;;;;;15.48;9.13;;;;;;;4.97;52.04;100568.72;7766072;32;40062;-81
2022/12/28 19:34:28;;;;;;;14.93;9.52;;;;;;;5.05;51.85;100560.34;7766124;32;38715;-80
2022/12/28 19:38:45;;;;;;;17.67;8.35;;;;;;;5.05;51.82;100557.62;7766189;32;36752;-80
2022/12/28 19:43:03;;;;;;;15.73;8.35;;;;;;;5.21;51.18;100561.72;7764972;32;38461;-80
2022/12/28 19:47:19;;;;;;;16.23;8.45;;;;;;;4.89;51.72;100551.69;7777540;32;39941;-81
2022/12/28 19:51:35;;;;;;;16.45;8.65;;;;;;;4.89;51.57;100548.97;7765676;32;37958;-80
2022/12/28 19:55:57;;;;;;;17.67;8.88;;;;;;;4.94;51.53;100547.53;7765911;32;36970;-81
2022/12/28 20:00:14;;;;;;;16.25;8.27;;;;;;;5.03;51.37;100540.81;7765916;32;40011;-80
2022/12/28 20:04:30;;;;;;;23.30;9.00;;;;;;;4.98;51.68;100535.22;7765678;32;40018;-80
2022/12/28 20:08:48;;;;;;;15.45;8.55;;;;;;;4.65;52.33;100530.81;7765665;32;37527;-80
2022/12/28 20:13:04;;;;;;;20.40;11.15;;;;;;;4.88;51.74;100533.81;7765754;32;37790;-80
2022/12/28 20:17:21;;;;;;;21.75;12.00;;;;;;;4.84;51.79;100534.47;7765640;32;40067;-80
2022/12/28 20:21:40;;;;;;;21.48;10.88;;;;;;;4.36;54.96;100533.00;7765563;32;40166;-81
2022/12/28 20:25:57;;;;;;;20.12;9.88;;;;;;;4.25;55.18;100533.66;7766127;32;38876;-80
2022/12/28 20:30:13;;;;;;;19.67;9.63;;;;;;;4.38;53.64;100525.53;7764899;32;37792;-80
2022/12/28 20:34:29;;;;;;;21.65;9.57;;;;;;;4.47;53.40;100521.53;7765485;32;39463;-80
2022/12/28 20:38:46;;;;;;;23.38;11.88;;;;;;;4.44;53.60;100530.06;7765443;32;40740;-81
2022/12/28 20:47:37;;;;;;;26.05;15.35;;;;;;;3.91;57.38;100546.38;7765190;32;37371;-80
2022/12/28 20:51:54;;;;;;;27.98;15.75;;;;;;;3.74;57.40;100546.81;7765067;32;39169;-81
2022/12/28 20:56:13;;;;;;;30.27;14.90;;;;;;;3.90;56.40;100539.34;7765086;32;40898;-80
2022/12/28 21:00:30;;;;;;;22.45;11.07;;;;;;;3.78;56.36;100549.06;7764981;32;37986;-81
2022/12/28 21:04:46;;;;;;;26.73;13.27;;;;;;;3.82;55.77;100544.94;7765090;32;37079;-81
2022/12/28 21:09:02;;;;;;;19.10;10.20;;;;;;;3.80;55.98;100544.34;7764888;32;39296;-80
2022/12/28 21:13:19;;;;;;;17.90;9.80;;;;;;;3.99;55.16;100543.47;7763743;32;39633;-80
2022/12/28 21:17:35;;;;;;;18.60;10.70;;;;;;;4.04;54.93;100530.19;7764727;32;38043;-81
2022/12/28 21:21:51;;;;;;;18.37;10.13;;;;;;;4.07;54.86;100518.97;7764808;32;37069;-81
2022/12/28 21:26:14;;;;;;;20.05;10.55;;;;;;;4.14;54.63;100508.97;7764660;32;39258;-80
2022/12/28 21:30:31;;;;;;;24.67;11.82;;;;;;;3.89;55.39;100513.41;7763390;32;39660;-80
2022/12/28 21:34:47;;;;;;;18.33;10.93;;;;;;;3.78;55.87;100506.78;7763256;32;38432;-80
2022/12/28 21:39:03;;;;;;;20.00;11.35;;;;;;;3.75;55.94;100497.22;7764382;32;37963;-80
2022/12/28 21:43:20;;;;;;;22.85;12.65;;;;;;;3.79;55.88;100499.50;7764075;32;39952;-81
2022/12/28 21:47:36;;;;;;;28.12;14.30;;;;;;;3.63;56.40;100500.78;7764027;32;39903;-80
2022/12/28 21:51:58;;;;;;;29.98;15.07;;;;;;;3.44;57.63;100497.03;7763741;32;38901;-80
2022/12/28 21:56:14;;;;;;;25.15;14.35;;;;;;;3.24;58.42;100507.81;7763993;32;37183;-80
2022/12/28 22:14:16;;;;;;;19.77;12.55;;;;;;;3.45;57.15;100488.75;7763642;32;37849;-81
2022/12/28 22:18:32;;;;;;;23.12;12.90;;;;;;;3.67;56.18;100486.66;7763478;32;39160;-81
2022/12/28 22:23:08;;;;;;;23.15;12.82;;;;;;;3.56;56.20;100490.00;7762798;32;40317;-81
2022/12/28 22:27:24;;;;;;;26.00;12.93;;;;;;;3.35;56.86;100467.59;7763190;32;37670;-80
2022/12/28 22:31:41;;;;;;;23.27;12.13;;;;;;;3.67;55.98;100458.84;7763093;32;36831;-80
2022/12/28 22:36:06;;;;;;;26.05;12.90;;;;;;;3.51;56.20;100460.94;7763028;32;40004;-80
2022/12/28 22:40:22;;;;;;;20.80;11.82;;;;;;;3.46;56.17;100449.12;7763128;32;40687;-81
2022/12/28 22:44:39;;;;;;;25.08;13.35;;;;;;;3.16;57.19;100447.69;7762810;32;37684;-80
2022/12/28 22:48:55;;;;;;;31.17;13.73;;;;;;;2.74;59.01;100444.34;7762633;32;36953;-80
2022/12/28 22:53:11;;;;;;;22.62;11.88;;;;;;;2.99;58.00;100449.97;7763081;32;39423;-80
2022/12/28 22:57:27;;;;;;;22.05;12.65;;;;;;;3.13;57.38;100437.31;7766577;32;40060;-82
2022/12/28 23:01:46;;;;;;;27.25;15.20;;;;;;;3.19;56.89;100435.66;7766452;32;38631;-80
2022/12/28 23:06:05;;;;;;;32.42;16.70;;;;;;;2.87;59.06;100438.16;7766561;32;37952;-80
2022/12/28 23:10:21;;;;;;;32.10;17.40;;;;;;;3.08;59.50;100433.59;7766453;32;39168;-80
2022/12/28 23:28:28;;;;;;;20.67;12.68;;;;;;;2.81;60.05;100406.63;7757889;32;39232;-80
2022/12/28 23:32:50;;;;;;;29.27;14.95;;;;;;;2.99;59.50;100414.94;7766132;32;39817;-80
2022/12/28 23:37:06;;;;;;;25.33;13.13;;;;;;;2.66;60.64;100397.91;7766101;32;38749;-79
2022/12/28 23:45:57;;;;;;;28.65;14.63;;;;;;;2.93;59.52;100409.53;7766096;32;39679;-80
2022/12/28 23:50:15;;;;;;;32.38;16.30;;;;;;;2.81;60.30;100406.63;7766065;32;40998;-80
2022/12/28 23:54:31;;;;;;;29.33;16.42;;;;;;;2.82;60.39;100406.44;7765782;32;37038;-79
2022/12/28 23:58:53;;;;;;;28.90;17.05;;;;;;;2.84;60.86;100421.56;7765877;32;37141;-82
